Terminal Aerodrome Forecast
Issued by NWS

Home | Current Version | Previous Version | Text Only | Print | Product List | Glossary On
Versions: 1 2 3 4 5 6 7 8 9 10 11 12 13 14 15 16 17 18
000
FTUS46 KPDT 211700
TAFYKM
TAF
KYKM 211730Z 2118/2218 VRB03KT 2SM BR VCSH BKN010 OVC045
     FM212000 VRB03KT 3SM -RA BR OVC020
     FM220400 28004KT 3SM -SHRA BR SCT020 OVC070
     FM221200 27007KT 6SM BR SCT120=

USA.gov is the U.S. government's official web portal to all federal, state and local government web resources and services.